Time;durP1;ratioP1;P1;durP2;ratioP2;P2;SDS_P1;SDS_P2;PMS_P1;PMS_P2;Temp;Humidity;BMP_temperature;BMP_pressure;BME280_temperature;BME280_humidity;BME280_pressure;Samples;Min_cycle;Max_cycle;Signal;HPM_P1;HPM_P2
2022/03/15 00:01:31;;;;;;;31.97;16.87;;;4.70;99.90;;;;;;5108361;28;20266;-72
2022/03/15 00:03:59;;;;;;;32.57;17.00;;;4.60;99.90;;;;;;5109618;28;20204;-73
2022/03/15 00:06:26;;;;;;;30.67;16.97;;;4.70;99.90;;;;;;5110816;28;20278;-73
2022/03/15 00:08:53;;;;;;;31.30;16.37;;;4.70;99.90;;;;;;5112300;28;20276;-72
2022/03/15 00:11:21;;;;;;;29.57;16.37;;;4.60;99.90;;;;;;5103882;28;20222;-73
2022/03/15 00:13:48;;;;;;;27.53;15.70;;;4.50;99.90;;;;;;5093622;28;20237;-73
2022/03/15 00:16:15;;;;;;;28.40;16.37;;;4.60;99.90;;;;;;5112208;28;20211;-73
2022/03/15 00:18:42;;;;;;;24.97;14.20;;;4.50;99.90;;;;;;5098467;28;20205;-73
2022/03/15 00:21:11;;;;;;;29.57;16.23;;;4.50;99.90;;;;;;5111089;28;20758;-73
2022/03/15 00:23:38;;;;;;;28.33;16.33;;;4.60;99.90;;;;;;5112985;28;20234;-73
2022/03/15 00:26:05;;;;;;;29.03;16.67;;;4.60;99.90;;;;;;5115532;28;20201;-73
2022/03/15 00:28:32;;;;;;;31.17;16.80;;;4.60;99.90;;;;;;5101568;28;20206;-73
2022/03/15 00:31:00;;;;;;;29.20;15.93;;;4.60;99.90;;;;;;5115602;28;20591;-73
2022/03/15 00:33:27;;;;;;;31.17;16.13;;;4.50;99.90;;;;;;5102419;28;20228;-73
2022/03/15 00:35:54;;;;;;;30.10;16.63;;;4.40;99.90;;;;;;5108044;28;20207;-73
2022/03/15 00:38:24;;;;;;;30.07;17.60;;;4.40;99.90;;;;;;5115670;28;20202;-73
2022/03/15 00:40:51;;;;;;;29.63;16.50;;;4.50;99.90;;;;;;5111070;28;20217;-73
2022/03/15 00:43:18;;;;;;;29.27;16.70;;;4.50;99.90;;;;;;5108466;28;20258;-73
2022/03/15 00:45:45;;;;;;;29.87;17.27;;;4.40;99.90;;;;;;5115806;28;20200;-73
2022/03/15 00:48:13;;;;;;;28.47;15.93;;;4.30;99.90;;;;;;5107707;28;20655;-73
2022/03/15 00:50:41;;;;;;;29.50;17.13;;;4.20;99.90;;;;;;5114980;28;20201;-73
2022/03/15 00:53:09;;;;;;;29.03;17.00;;;4.10;99.90;;;;;;5111039;28;20310;-73
2022/03/15 00:55:38;;;;;;;28.17;15.40;;;4.20;99.90;;;;;;5115371;28;20193;-73
2022/03/15 00:58:06;;;;;;;26.20;15.40;;;4.00;99.90;;;;;;5113994;28;20193;-72
2022/03/15 01:00:35;;;;;;;28.93;16.53;;;3.90;99.90;;;;;;5104222;28;20208;-73
2022/03/15 01:03:02;;;;;;;31.07;16.33;;;4.00;99.90;;;;;;5101231;28;20208;-73
2022/03/15 01:05:29;;;;;;;30.97;16.10;;;4.20;99.90;;;;;;5114690;28;20196;-73
2022/03/15 01:07:56;;;;;;;32.53;17.50;;;4.20;99.90;;;;;;5113291;28;20662;-72
2022/03/15 01:10:23;;;;;;;31.13;16.00;;;4.10;99.90;;;;;;5115309;28;20656;-72
2022/03/15 01:12:52;;;;;;;30.03;16.63;;;4.10;99.90;;;;;;5094254;28;20221;-73
2022/03/15 01:15:19;;;;;;;30.20;17.03;;;4.20;99.90;;;;;;5109598;28;20713;-73
2022/03/15 01:17:46;;;;;;;31.03;16.70;;;4.10;99.90;;;;;;5107160;28;20209;-72
2022/03/15 01:20:13;;;;;;;30.17;16.23;;;4.10;99.90;;;;;;5114180;28;20197;-73
2022/03/15 01:22:40;;;;;;;31.50;17.33;;;4.00;99.90;;;;;;5114082;28;20189;-72
2022/03/15 01:25:08;;;;;;;29.63;16.97;;;3.90;99.90;;;;;;5113768;28;20507;-72
2022/03/15 01:27:35;;;;;;;29.00;16.30;;;3.90;99.90;;;;;;5113865;28;20193;-72
2022/03/15 01:30:04;;;;;;;26.73;15.00;;;3.80;99.90;;;;;;5114760;28;20627;-72
2022/03/15 01:32:31;;;;;;;30.40;15.97;;;3.80;99.90;;;;;;5108208;28;20225;-73
2022/03/15 01:34:58;;;;;;;30.67;16.03;;;3.70;99.90;;;;;;5110144;28;20582;-73
2022/03/15 01:37:25;;;;;;;28.37;16.13;;;3.80;99.90;;;;;;5113588;28;20196;-73
2022/03/15 01:39:52;;;;;;;29.37;15.53;;;3.80;99.90;;;;;;5108814;28;20200;-73
2022/03/15 01:42:19;;;;;;;29.20;15.60;;;3.60;99.90;;;;;;5114326;28;20204;-73
2022/03/15 01:44:47;;;;;;;26.83;15.07;;;3.60;99.90;;;;;;5114748;28;20201;-73
2022/03/15 01:47:15;;;;;;;30.47;16.13;;;3.60;99.90;;;;;;5110471;28;20258;-73
2022/03/15 01:49:43;;;;;;;30.37;16.67;;;3.70;99.90;;;;;;5113716;28;20201;-72
2022/03/15 01:52:12;;;;;;;26.30;14.83;;;3.70;99.90;;;;;;5113741;28;20609;-73
2022/03/15 01:54:40;;;;;;;26.43;15.27;;;3.50;99.90;;;;;;5114317;28;20230;-72
2022/03/15 01:57:07;;;;;;;28.30;15.53;;;3.20;99.90;;;;;;5111448;28;20205;-73
2022/03/15 01:59:35;;;;;;;28.00;15.40;;;3.30;99.90;;;;;;5105602;28;20207;-73
2022/03/15 02:02:02;;;;;;;29.87;15.17;;;3.30;99.90;;;;;;5113150;28;20643;-73
2022/03/15 02:04:32;;;;;;;25.33;15.00;;;3.10;99.90;;;;;;5109397;28;20211;-72
2022/03/15 02:07:04;;;;;;;26.93;14.87;;;3.00;99.90;;;;;;5131494;27;20678;-73
2022/03/15 02:09:31;;;;;;;27.20;15.97;;;3.00;99.90;;;;;;5101731;27;20263;-72
2022/03/15 02:11:58;;;;;;;28.03;14.50;;;3.00;99.90;;;;;;5101376;28;20216;-73
2022/03/15 02:14:26;;;;;;;30.00;15.00;;;2.80;99.90;;;;;;5108313;28;20633;-72
2022/03/15 02:16:53;;;;;;;25.43;14.30;;;2.90;99.90;;;;;;5098940;28;20194;-72
2022/03/15 02:19:20;;;;;;;25.00;14.20;;;2.80;99.90;;;;;;5113520;28;20686;-72
2022/03/15 02:21:48;;;;;;;25.23;13.47;;;2.70;99.90;;;;;;5113503;28;20562;-72
2022/03/15 02:24:15;;;;;;;25.70;14.53;;;2.80;99.90;;;;;;5113143;28;20204;-72
2022/03/15 02:26:42;;;;;;;25.07;14.20;;;2.70;99.90;;;;;;5112943;28;20283;-72
2022/03/15 02:29:09;;;;;;;25.97;14.70;;;2.50;99.90;;;;;;5113284;28;20567;-73
2022/03/15 02:31:36;;;;;;;28.60;15.27;;;2.40;99.90;;;;;;5111072;28;20197;-73
2022/03/15 02:34:03;;;;;;;28.50;14.97;;;2.30;99.90;;;;;;5113644;28;20224;-73
2022/03/15 02:36:30;;;;;;;27.27;14.13;;;2.20;99.90;;;;;;5111837;28;20240;-72
2022/03/15 02:38:59;;;;;;;30.27;14.93;;;2.20;99.90;;;;;;5107620;28;20203;-75
2022/03/15 02:41:26;;;;;;;28.23;15.57;;;2.30;99.90;;;;;;5113301;28;20698;-75
2022/03/15 02:43:56;;;;;;;28.37;14.57;;;2.40;99.90;;;;;;5109168;28;20284;-75
2022/03/15 02:46:23;;;;;;;27.03;14.70;;;2.50;99.90;;;;;;5113116;28;20566;-75
2022/03/15 02:48:50;;;;;;;27.77;15.10;;;2.40;99.90;;;;;;5102056;28;20197;-75
2022/03/15 02:51:16;;;;;;;29.83;15.47;;;2.50;99.90;;;;;;5112589;28;20283;-75
2022/03/15 02:53:44;;;;;;;28.00;15.57;;;2.60;99.90;;;;;;5112556;28;20587;-75
2022/03/15 02:56:12;;;;;;;29.27;15.83;;;2.60;99.90;;;;;;5112614;28;20201;-76
2022/03/15 02:58:40;;;;;;;32.37;16.53;;;2.60;99.90;;;;;;5111930;28;20205;-75
2022/03/15 03:01:07;;;;;;;29.90;16.33;;;2.70;99.90;;;;;;5113060;28;20728;-75
2022/03/15 03:03:34;;;;;;;29.63;14.30;;;2.60;99.90;;;;;;5110836;28;20197;-75
2022/03/15 03:06:01;;;;;;;30.13;15.90;;;2.70;99.90;;;;;;5097831;28;20206;-75
2022/03/15 03:08:30;;;;;;;28.93;15.67;;;2.70;99.90;;;;;;5098374;28;20211;-75
2022/03/15 03:10:58;;;;;;;30.37;17.03;;;2.70;99.90;;;;;;5098067;28;20205;-75
2022/03/15 03:13:27;;;;;;;30.07;15.87;;;2.90;99.90;;;;;;5092808;28;20236;-75
2022/03/15 03:15:55;;;;;;;29.13;15.70;;;2.90;99.90;;;;;;5111656;28;20211;-75
2022/03/15 03:18:23;;;;;;;28.87;16.17;;;2.90;99.90;;;;;;5106662;28;20288;-75
2022/03/15 03:20:50;;;;;;;30.77;16.27;;;2.80;99.90;;;;;;5111858;28;20205;-75
2022/03/15 03:23:18;;;;;;;27.03;15.27;;;2.80;99.90;;;;;;5112011;28;20635;-75
2022/03/15 03:25:46;;;;;;;28.23;13.93;;;2.60;99.90;;;;;;5112773;28;20561;-75
2022/03/15 03:28:14;;;;;;;27.00;14.90;;;2.30;99.90;;;;;;5103563;28;20225;-75
2022/03/15 03:30:47;;;;;;;26.03;14.53;;;2.40;99.90;;;;;;5111677;28;20193;-75
2022/03/15 03:33:14;;;;;;;27.33;13.57;;;2.50;99.90;;;;;;5100915;28;20251;-75
2022/03/15 03:35:43;;;;;;;26.90;14.43;;;2.60;99.90;;;;;;5107266;28;20207;-75
2022/03/15 03:38:10;;;;;;;25.80;14.73;;;2.60;99.90;;;;;;5110159;28;20292;-75
2022/03/15 03:40:37;;;;;;;37.67;20.50;;;2.60;99.90;;;;;;5111620;28;20205;-75
2022/03/15 03:43:05;;;;;;;31.63;16.33;;;2.70;99.90;;;;;;5108838;28;20239;-74
2022/03/15 03:45:32;;;;;;;29.80;15.33;;;2.90;99.90;;;;;;5110797;28;20201;-75
2022/03/15 03:48:00;;;;;;;28.40;15.53;;;2.90;99.90;;;;;;5111796;28;20204;-75
2022/03/15 03:50:27;;;;;;;32.17;16.97;;;3.00;99.90;;;;;;5111969;28;20203;-76
2022/03/15 03:52:54;;;;;;;27.33;14.60;;;3.00;99.90;;;;;;5117451;27;20584;-75
2022/03/15 03:55:21;;;;;;;29.73;15.40;;;3.10;99.90;;;;;;5111117;28;20197;-76
2022/03/15 03:57:48;;;;;;;29.10;15.67;;;3.00;99.90;;;;;;5111045;28;20292;-76
2022/03/15 04:00:16;;;;;;;28.63;15.90;;;3.20;99.90;;;;;;5112488;28;20203;-76
2022/03/15 04:02:43;;;;;;;29.03;15.70;;;3.20;99.90;;;;;;5100370;28;20204;-76
2022/03/15 04:05:12;;;;;;;30.70;15.47;;;3.30;99.90;;;;;;5109399;28;20197;-76
2022/03/15 04:07:41;;;;;;;28.03;14.63;;;3.10;99.90;;;;;;5107989;28;20731;-76
2022/03/15 04:10:09;;;;;;;29.87;14.60;;;3.00;99.90;;;;;;5108005;28;20200;-76
2022/03/15 04:12:36;;;;;;;27.70;14.53;;;3.10;99.90;;;;;;5111804;28;20231;-75
2022/03/15 04:15:04;;;;;;;31.20;15.17;;;3.10;99.90;;;;;;5111542;28;20201;-76
2022/03/15 04:17:31;;;;;;;27.00;15.23;;;3.00;99.90;;;;;;5096772;28;20205;-76
2022/03/15 04:20:00;;;;;;;27.33;15.27;;;3.00;99.90;;;;;;5113013;28;20276;-76
2022/03/15 04:22:28;;;;;;;30.63;14.63;;;3.10;99.90;;;;;;5111786;28;20574;-76
2022/03/15 04:24:55;;;;;;;30.83;16.43;;;3.20;99.90;;;;;;5092100;28;20712;-76
2022/03/15 04:27:22;;;;;;;28.57;14.77;;;3.20;99.90;;;;;;5090813;28;20668;-76
2022/03/15 04:29:49;;;;;;;32.47;16.33;;;3.20;99.90;;;;;;5091581;28;20201;-76
2022/03/15 04:32:16;;;;;;;32.40;17.47;;;3.00;99.90;;;;;;5091488;28;20213;-76
2022/03/15 04:34:43;;;;;;;29.63;15.47;;;3.00;99.90;;;;;;5091625;28;20236;-76
2022/03/15 04:37:10;;;;;;;29.70;14.67;;;3.00;99.90;;;;;;5090759;28;20301;-76
2022/03/15 04:39:38;;;;;;;27.10;14.67;;;2.90;99.90;;;;;;5091770;28;20202;-76
2022/03/15 04:42:06;;;;;;;26.63;14.27;;;2.90;99.90;;;;;;5091843;28;20254;-76
2022/03/15 04:44:33;;;;;;;29.27;14.63;;;2.80;99.90;;;;;;5090960;28;20208;-76
2022/03/15 04:47:00;;;;;;;28.13;15.23;;;2.80;99.90;;;;;;5090807;28;20228;-76
2022/03/15 04:49:27;;;;;;;26.60;13.97;;;2.80;99.90;;;;;;5091838;28;20661;-76
2022/03/15 04:51:54;;;;;;;26.03;13.83;;;2.80;99.90;;;;;;5090424;28;20208;-76
2022/03/15 04:54:21;;;;;;;24.90;13.23;;;2.60;99.90;;;;;;5091562;28;20251;-76
2022/03/15 04:56:49;;;;;;;25.27;12.87;;;2.40;99.90;;;;;;5090635;28;20594;-76
2022/03/15 04:59:16;;;;;;;25.53;13.50;;;2.20;99.90;;;;;;5091498;28;20209;-76
2022/03/15 05:01:43;;;;;;;28.40;14.73;;;2.20;99.90;;;;;;5091764;28;20218;-76
2022/03/15 05:04:10;;;;;;;28.83;14.33;;;2.30;99.90;;;;;;5091817;28;20655;-76
2022/03/15 05:06:38;;;;;;;26.67;13.97;;;2.40;99.90;;;;;;5089966;28;20296;-76
2022/03/15 05:09:05;;;;;;;26.20;13.47;;;2.30;99.90;;;;;;5090912;28;20206;-76
2022/03/15 05:11:31;;;;;;;27.23;13.97;;;2.40;99.90;;;;;;5094320;28;20682;-76
2022/03/15 05:13:59;;;;;;;25.73;13.97;;;2.50;99.90;;;;;;5095074;28;20308;-76
2022/03/15 05:16:26;;;;;;;28.90;14.10;;;2.40;99.90;;;;;;5093631;28;20205;-76
2022/03/15 05:18:54;;;;;;;30.47;15.50;;;2.40;99.90;;;;;;5094254;28;20201;-76
2022/03/15 05:21:25;;;;;;;27.50;14.33;;;2.40;99.90;;;;;;5093256;28;20202;-76
2022/03/15 05:23:52;;;;;;;27.23;14.30;;;2.50;99.90;;;;;;5094825;28;20202;-76
2022/03/15 05:26:20;;;;;;;27.13;14.27;;;2.50;99.90;;;;;;5094778;28;20210;-76
2022/03/15 05:28:49;;;;;;;27.57;14.00;;;2.60;99.90;;;;;;5093752;28;20205;-76
2022/03/15 05:31:19;;;;;;;30.10;15.43;;;2.60;99.90;;;;;;5094854;28;20220;-76
2022/03/15 05:33:46;;;;;;;28.03;13.83;;;2.70;99.90;;;;;;5094999;28;20377;-76
2022/03/15 05:36:14;;;;;;;30.37;16.53;;;2.60;99.90;;;;;;5093441;28;20674;-76
2022/03/15 05:38:40;;;;;;;31.10;16.63;;;2.60;99.90;;;;;;5093808;28;20648;-76
2022/03/15 05:41:08;;;;;;;29.33;16.00;;;2.50;99.90;;;;;;5094413;28;20202;-76
2022/03/15 05:43:35;;;;;;;29.90;15.27;;;2.50;99.90;;;;;;5094720;28;20206;-76
2022/03/15 05:46:02;;;;;;;28.23;15.43;;;2.40;99.90;;;;;;5094093;28;20250;-76
2022/03/15 05:48:30;;;;;;;26.63;14.57;;;2.40;99.90;;;;;;5094121;28;20670;-76
2022/03/15 05:50:58;;;;;;;26.10;13.90;;;2.30;99.90;;;;;;5092848;28;20202;-76
2022/03/15 05:53:24;;;;;;;26.83;13.13;;;2.30;99.90;;;;;;5094227;28;20221;-76
2022/03/15 05:55:51;;;;;;;25.80;13.57;;;2.10;99.90;;;;;;5094105;28;20559;-76
2022/03/15 05:58:18;;;;;;;31.77;15.03;;;2.20;99.90;;;;;;5093340;28;20207;-76
2022/03/15 06:00:46;;;;;;;28.27;14.27;;;2.20;99.90;;;;;;5094454;28;20212;-76
2022/03/15 06:03:13;;;;;;;29.33;14.70;;;2.40;99.90;;;;;;5094309;28;20538;-73
2022/03/15 06:05:41;;;;;;;25.10;14.10;;;2.50;99.90;;;;;;5094015;28;20206;-76
2022/03/15 06:08:08;;;;;;;25.33;13.13;;;2.40;99.90;;;;;;5092328;28;20198;-76
2022/03/15 06:10:36;;;;;;;29.93;15.20;;;2.60;99.90;;;;;;5093076;28;20198;-76
2022/03/15 06:13:03;;;;;;;29.87;13.97;;;2.50;99.90;;;;;;5093734;28;20274;-76
2022/03/15 06:15:30;;;;;;;27.30;14.40;;;2.50;99.90;;;;;;5092178;28;20229;-76
2022/03/15 06:18:00;;;;;;;29.57;15.27;;;2.60;99.90;;;;;;5092470;28;20212;-76
2022/03/15 06:20:27;;;;;;;25.67;14.80;;;2.70;99.90;;;;;;5091654;28;20233;-76
2022/03/15 06:22:56;;;;;;;27.47;13.87;;;2.80;99.90;;;;;;5091342;28;20208;-76
2022/03/15 06:25:24;;;;;;;27.93;15.07;;;2.90;99.90;;;;;;5091480;28;20197;-76
2022/03/15 06:27:51;;;;;;;28.10;15.90;;;2.90;99.90;;;;;;5092060;28;20235;-76
2022/03/15 06:30:19;;;;;;;29.20;15.60;;;3.00;99.90;;;;;;5092916;28;20619;-76
2022/03/15 06:32:47;;;;;;;29.40;16.17;;;3.20;99.90;;;;;;5092622;28;20210;-76
2022/03/15 06:35:14;;;;;;;31.50;16.40;;;3.20;99.90;;;;;;5091841;28;20221;-76
2022/03/15 06:37:44;;;;;;;29.20;16.13;;;3.20;99.90;;;;;;5091221;28;20201;-76
2022/03/15 06:40:14;;;;;;;31.37;17.37;;;3.30;99.90;;;;;;5092113;28;20202;-76
2022/03/15 06:42:41;;;;;;;30.27;17.27;;;3.30;99.90;;;;;;5091851;28;20208;-76
2022/03/15 06:45:11;;;;;;;30.43;17.20;;;3.40;99.90;;;;;;5092361;28;20198;-76
2022/03/15 06:47:39;;;;;;;28.57;15.27;;;3.40;99.90;;;;;;5090719;28;20209;-76
2022/03/15 06:50:08;;;;;;;28.23;16.10;;;3.50;99.90;;;;;;5092115;28;20633;-76
2022/03/15 06:52:36;;;;;;;27.83;17.03;;;3.50;99.90;;;;;;5091389;28;20202;-76
2022/03/15 06:55:03;;;;;;;28.73;16.63;;;3.40;99.90;;;;;;5090600;28;20272;-76
2022/03/15 06:57:33;;;;;;;27.27;14.97;;;3.40;99.90;;;;;;5091367;28;20202;-76
2022/03/15 07:00:00;;;;;;;27.20;15.00;;;3.30;99.90;;;;;;5092449;28;20197;-76
2022/03/15 07:02:29;;;;;;;27.27;15.40;;;3.40;99.90;;;;;;5093234;28;20208;-76
2022/03/15 07:04:56;;;;;;;22.23;13.00;;;3.50;99.90;;;;;;5093563;28;20729;-76
2022/03/15 07:07:24;;;;;;;26.13;15.67;;;3.60;99.90;;;;;;5098821;28;20551;-76
2022/03/15 07:09:51;;;;;;;25.43;13.97;;;3.80;99.90;;;;;;5092463;28;20212;-76
2022/03/15 07:12:19;;;;;;;27.70;14.87;;;3.90;99.90;;;;;;5092609;28;20211;-76
2022/03/15 07:14:49;;;;;;;28.33;15.53;;;3.90;99.90;;;;;;5092261;28;20220;-76
2022/03/15 07:17:16;;;;;;;27.70;15.37;;;4.00;99.90;;;;;;5104668;28;20210;-76
2022/03/15 07:19:43;;;;;;;27.90;16.80;;;4.20;99.90;;;;;;5102178;28;20205;-76
2022/03/15 07:22:10;;;;;;;30.70;18.07;;;4.30;99.90;;;;;;5112596;28;20559;-76
2022/03/15 07:24:38;;;;;;;33.73;20.27;;;4.40;99.90;;;;;;5095182;28;20206;-76
2022/03/15 07:27:06;;;;;;;31.43;18.77;;;4.50;99.90;;;;;;5091209;28;20207;-76
2022/03/15 07:29:34;;;;;;;32.47;20.17;;;4.60;99.90;;;;;;5091665;28;20205;-76
2022/03/15 07:32:03;;;;;;;30.73;18.83;;;4.60;99.90;;;;;;5091539;28;20255;-76
2022/03/15 07:34:30;;;;;;;31.60;18.03;;;4.70;99.90;;;;;;5091197;28;20582;-76
2022/03/15 07:36:58;;;;;;;31.43;18.20;;;4.80;99.90;;;;;;5090393;28;20584;-76
2022/03/15 07:39:25;;;;;;;28.10;17.63;;;4.80;99.90;;;;;;5091953;28;20203;-76
2022/03/15 07:41:52;;;;;;;30.03;16.63;;;5.10;99.90;;;;;;5091585;28;20201;-76
2022/03/15 07:44:20;;;;;;;29.37;17.90;;;5.30;99.90;;;;;;5091950;28;20700;-76
2022/03/15 07:46:50;;;;;;;30.97;18.47;;;5.40;99.90;;;;;;5091465;28;20670;-76
2022/03/15 07:49:19;;;;;;;28.30;17.13;;;5.60;99.90;;;;;;5090749;28;20201;-76
2022/03/15 07:51:47;;;;;;;29.27;18.67;;;5.80;99.90;;;;;;5090476;28;20208;-76
2022/03/15 07:54:14;;;;;;;27.13;17.20;;;6.00;99.90;;;;;;5090261;28;20249;-76
2022/03/15 07:56:42;;;;;;;28.20;18.33;;;6.10;99.90;;;;;;5089928;28;20212;-76
2022/03/15 07:59:09;;;;;;;30.23;19.03;;;6.30;99.90;;;;;;5091208;28;20622;-76
2022/03/15 08:01:36;;;;;;;28.37;17.87;;;6.50;99.90;;;;;;5091183;28;20194;-76
2022/03/15 08:04:03;;;;;;;27.40;16.50;;;6.70;99.90;;;;;;5091319;28;20213;-76
2022/03/15 08:06:35;;;;;;;29.83;16.60;;;6.80;99.90;;;;;;5089205;28;20208;-76
2022/03/15 08:09:02;;;;;;;25.87;16.07;;;6.90;99.90;;;;;;5090589;28;20636;-76
2022/03/15 08:11:29;;;;;;;28.40;16.47;;;7.10;99.90;;;;;;5091363;28;20201;-76
2022/03/15 08:13:58;;;;;;;27.60;16.97;;;7.10;99.90;;;;;;5090356;28;20244;-76
2022/03/15 08:16:26;;;;;;;24.93;15.13;;;7.20;99.90;;;;;;5091372;28;20656;-76
2022/03/15 08:18:54;;;;;;;24.37;15.37;;;7.20;99.90;;;;;;5091059;28;20268;-76
2022/03/15 08:21:22;;;;;;;24.33;14.63;;;7.40;99.90;;;;;;5090984;28;20200;-76
2022/03/15 08:23:51;;;;;;;27.97;16.53;;;7.30;99.90;;;;;;5090742;28;20205;-76
2022/03/15 08:26:19;;;;;;;23.87;16.70;;;7.40;99.90;;;;;;5091177;28;20204;-76
2022/03/15 08:28:48;;;;;;;23.77;14.63;;;7.60;99.90;;;;;;5090585;28;20284;-76
2022/03/15 08:31:16;;;;;;;24.93;14.83;;;7.60;99.90;;;;;;5089515;28;20197;-76
2022/03/15 08:33:44;;;;;;;22.37;13.60;;;7.70;99.90;;;;;;5090645;28;20202;-76
2022/03/15 08:36:13;;;;;;;21.30;13.53;;;7.90;99.90;;;;;;5090925;28;20542;-76
2022/03/15 08:38:40;;;;;;;22.30;12.50;;;8.00;99.90;;;;;;5089910;28;20263;-76
2022/03/15 08:41:08;;;;;;;23.17;14.30;;;8.10;99.90;;;;;;5091206;28;20201;-76
2022/03/15 08:43:36;;;;;;;20.87;12.90;;;8.20;99.90;;;;;;5091068;28;20218;-76
2022/03/15 08:46:03;;;;;;;21.50;13.40;;;8.30;99.90;;;;;;5094746;28;20202;-76
2022/03/15 08:48:32;;;;;;;23.63;14.07;;;8.40;51.70;;;;;;5094782;28;20229;-76
2022/03/15 08:51:00;;;;;;;19.40;12.43;;;8.60;75.00;;;;;;5093427;28;20198;-76
2022/03/15 08:53:28;;;;;;;18.53;11.53;;;8.60;1.00;;;;;;5093938;28;20209;-76
2022/03/15 08:55:56;;;;;;;21.17;12.50;;;8.60;1.00;;;;;;5093183;28;20219;-76
2022/03/15 08:58:24;;;;;;;18.60;11.53;;;8.70;1.00;;;;;;5093878;28;20201;-76
2022/03/15 09:00:52;;;;;;;18.87;10.93;;;8.70;1.00;;;;;;5094796;28;20550;-76
2022/03/15 09:03:19;;;;;;;19.57;10.80;;;8.80;1.00;;;;;;5094333;28;20583;-76
2022/03/15 09:05:47;;;;;;;21.43;10.70;;;9.00;1.00;;;;;;5094796;28;20648;-76
2022/03/15 09:08:14;;;;;;;16.60;9.83;;;9.00;1.00;;;;;;5108584;28;20228;-76
2022/03/15 09:10:44;;;;;;;16.97;9.43;;;9.10;1.00;;;;;;5113624;28;20200;-75
2022/03/15 09:13:11;;;;;;;16.13;8.90;;;9.20;1.00;;;;;;5113480;28;20227;-75
2022/03/15 09:15:40;;;;;;;14.60;8.93;;;9.30;1.00;;;;;;5114037;28;20705;-75
2022/03/15 09:18:08;;;;;;;17.97;10.03;;;9.40;1.00;;;;;;5114475;28;20197;-75
2022/03/15 09:20:35;;;;;;;17.23;9.90;;;9.70;1.00;;;;;;5114087;28;20550;-76
2022/03/15 09:23:02;;;;;;;16.87;9.43;;;9.80;1.00;;;;;;5113427;28;20200;-75
2022/03/15 09:25:31;;;;;;;14.47;9.03;;;9.70;99.90;;;;;;5113928;28;20209;-76
2022/03/15 09:27:58;;;;;;;13.60;8.00;;;9.80;81.20;;;;;;5113713;28;20237;-76
2022/03/15 09:30:30;;;;;;;11.30;7.50;;;9.90;99.30;;;;;;5114574;28;20203;-76
2022/03/15 09:32:59;;;;;;;12.67;7.63;;;9.90;99.90;;;;;;5114410;28;20300;-75
2022/03/15 09:35:26;;;;;;;12.63;7.87;;;10.10;1.00;;;;;;5114488;28;20220;-73
2022/03/15 09:37:54;;;;;;;13.57;8.03;;;10.10;1.00;;;;;;5113813;28;20713;-73
2022/03/15 09:40:23;;;;;;;14.87;8.33;;;10.10;1.00;;;;;;5113606;28;20564;-72
2022/03/15 09:42:55;;;;;;;12.80;8.13;;;10.00;99.90;;;;;;5113761;28;20209;-72
2022/03/15 09:45:23;;;;;;;13.10;8.17;;;10.00;1.00;;;;;;5114352;28;20243;-72
2022/03/15 09:47:56;;;;;;;15.07;8.53;;;10.10;1.00;;;;;;5113524;28;20220;-73
2022/03/15 09:50:25;;;;;;;15.90;8.60;;;10.30;1.00;;;;;;5113868;28;20655;-73
2022/03/15 09:52:54;;;;;;;11.73;7.30;;;10.50;1.00;;;;;;5113531;28;20261;-73
2022/03/15 09:55:21;;;;;;;12.47;7.43;;;10.30;1.00;;;;;;5112474;28;20221;-73
2022/03/15 09:57:48;;;;;;;13.73;7.73;;;10.30;99.90;;;;;;5111894;28;20201;-72
2022/03/15 10:00:17;;;;;;;12.03;7.37;;;10.40;1.00;;;;;;5112437;28;20619;-72
2022/03/15 10:02:44;;;;;;;10.87;6.90;;;10.40;99.90;;;;;;5113350;28;20646;-73
2022/03/15 10:05:13;;;;;;;11.77;6.90;;;10.60;1.00;;;;;;5113578;28;20205;-73
2022/03/15 10:07:42;;;;;;;11.20;6.77;;;10.80;1.00;;;;;;5113418;28;20576;-72
2022/03/15 10:10:12;;;;;;;13.43;7.13;;;10.90;99.90;;;;;;5112546;28;20364;-72
2022/03/15 10:12:39;;;;;;;12.50;6.80;;;10.90;99.90;;;;;;5113577;28;20315;-73
2022/03/15 10:15:16;;;;;;;11.17;6.60;;;11.00;1.00;;;;;;5112711;28;20553;-72
2022/03/15 10:17:48;;;;;;;13.70;7.20;;;10.90;1.00;;;;;;5113089;28;20576;-73
2022/03/15 10:20:18;;;;;;;14.00;7.77;;;11.00;1.00;;;;;;5113584;28;20197;-73
2022/03/15 10:22:58;;;;;;;11.63;6.77;;;11.20;1.00;;;;;;5112305;28;20303;-72
2022/03/15 10:25:27;;;;;;;11.03;6.67;;;11.20;1.00;;;;;;5111496;28;20872;-72
2022/03/15 10:27:56;;;;;;;10.53;6.53;;;11.30;1.00;;;;;;5111922;28;20554;-72
2022/03/15 10:30:24;;;;;;;10.80;6.20;;;11.30;99.90;;;;;;5113350;28;20566;-72
2022/03/15 10:32:52;;;;;;;12.07;6.17;;;11.20;1.00;;;;;;5112439;28;20284;-72
2022/03/15 10:35:22;;;;;;;11.23;6.80;;;11.40;99.90;;;;;;5112845;28;20224;-72
2022/03/15 10:37:50;;;;;;;11.03;6.53;;;11.40;99.90;;;;;;5111087;28;20292;-73
2022/03/15 10:40:20;;;;;;;9.57;6.07;;;11.30;1.00;;;;;;5113306;28;20204;-73
2022/03/15 10:42:48;;;;;;;12.33;6.50;;;11.30;1.00;;;;;;5112619;28;20219;-72
2022/03/15 10:45:17;;;;;;;10.10;6.07;;;11.40;56.70;;;;;;5112995;28;20292;-73
2022/03/15 10:47:52;;;;;;;8.47;5.63;;;11.40;1.00;;;;;;5110922;28;20239;-72
2022/03/15 10:50:19;;;;;;;8.47;6.07;;;11.50;1.00;;;;;;5111746;28;20218;-73
2022/03/15 10:52:47;;;;;;;10.50;6.20;;;11.50;1.00;;;;;;5111951;28;20610;-72
2022/03/15 10:55:16;;;;;;;11.97;6.27;;;11.40;99.90;;;;;;5112675;28;20315;-72
2022/03/15 10:57:50;;;;;;;8.50;5.77;;;11.40;99.90;;;;;;5111274;28;20643;-72
2022/03/15 11:00:20;;;;;;;11.27;5.93;;;11.30;1.00;;;;;;5110752;28;20209;-73
2022/03/15 11:02:49;;;;;;;9.70;5.23;;;11.50;50.70;;;;;;5111427;28;20212;-72
2022/03/15 11:05:29;;;;;;;6.40;4.37;;;11.50;85.20;;;;;;5098069;28;20653;-73
2022/03/15 11:07:57;;;;;;;8.73;5.17;;;11.60;1.00;;;;;;5092407;28;20205;-73
2022/03/15 11:10:24;;;;;;;7.63;4.73;;;11.60;99.90;;;;;;5092429;28;20245;-72
2022/03/15 11:12:58;;;;;;;9.63;5.00;;;11.60;1.00;;;;;;5092463;28;20326;-72
2022/03/15 11:15:31;;;;;;;7.53;5.00;;;11.60;99.90;;;;;;5103860;28;20228;-72
2022/03/15 11:18:00;;;;;;;9.40;4.77;;;11.70;1.00;;;;;;5110699;28;20197;-72
2022/03/15 11:20:30;;;;;;;8.07;4.67;;;11.80;99.90;;;;;;5112336;28;20246;-73
2022/03/15 11:23:00;;;;;;;9.57;4.70;;;11.80;1.00;;;;;;5106467;28;20197;-72
2022/03/15 11:25:34;;;;;;;11.67;5.13;;;11.80;99.90;;;;;;5110861;28;20196;-72
2022/03/15 11:28:06;;;;;;;7.87;4.83;;;11.90;8.10;;;;;;5110816;28;20247;-72
2022/03/15 11:30:35;;;;;;;8.30;4.37;;;12.10;1.00;;;;;;5112524;28;20257;-73
2022/03/15 11:33:04;;;;;;;7.23;4.73;;;12.10;1.00;;;;;;5111152;28;20266;-73
2022/03/15 11:35:34;;;;;;;10.17;5.20;;;12.30;1.00;;;;;;5112016;28;20229;-72
2022/03/15 11:38:02;;;;;;;9.90;5.07;;;12.30;1.00;;;;;;5103332;28;20209;-73
2022/03/15 11:40:30;;;;;;;8.73;5.37;;;12.10;99.90;;;;;;5091874;28;20262;-73
2022/03/15 11:43:09;;;;;;;7.40;4.60;;;12.10;1.00;;;;;;5091393;28;20304;-72
2022/03/15 11:45:41;;;;;;;8.40;4.67;;;12.20;1.00;;;;;;5091361;28;20237;-73
2022/03/15 11:48:13;;;;;;;9.90;4.87;;;12.30;99.90;;;;;;5091318;28;20217;-73
2022/03/15 11:50:53;;;;;;;7.50;5.00;;;12.30;99.90;;;;;;5072930;28;20205;-73
2022/03/15 11:53:33;;;;;;;8.37;4.47;;;12.30;99.90;;;;;;5091949;28;20206;-73
2022/03/15 11:56:07;;;;;;;10.20;5.07;;;12.50;1.00;;;;;;5090258;28;20232;-72
2022/03/15 11:58:36;;;;;;;9.07;5.10;;;12.40;1.00;;;;;;5090405;28;20600;-72
2022/03/15 12:01:10;;;;;;;9.30;5.20;;;12.30;99.90;;;;;;5091360;28;20284;-72
2022/03/15 12:03:47;;;;;;;9.17;4.83;;;12.40;99.90;;;;;;5090890;28;20205;-72
2022/03/15 12:06:18;;;;;;;6.57;4.60;;;12.50;99.90;;;;;;5090626;28;20237;-72
2022/03/15 12:08:52;;;;;;;9.63;4.47;;;12.40;99.90;;;;;;5088538;28;20280;-72
2022/03/15 12:11:28;;;;;;;11.90;4.67;;;12.40;99.90;;;;;;5090385;28;20248;-72
2022/03/15 12:14:05;;;;;;;7.57;4.47;;;12.40;1.00;;;;;;5089565;28;20193;-72
2022/03/15 12:16:38;;;;;;;10.93;5.07;;;12.50;99.90;;;;;;5090128;28;20276;-72
2022/03/15 12:19:13;;;;;;;10.70;4.60;;;12.50;1.00;;;;;;5091896;28;20224;-73
2022/03/15 12:21:49;;;;;;;8.83;4.30;;;12.50;1.00;;;;;;5094403;28;20207;-73
2022/03/15 12:24:19;;;;;;;7.73;4.50;;;12.30;1.00;;;;;;5093756;28;20719;-73
2022/03/15 12:26:58;;;;;;;6.93;4.53;;;12.50;26.80;;;;;;5093910;28;20237;-72
2022/03/15 12:29:28;;;;;;;7.80;4.10;;;12.30;1.00;;;;;;5095001;28;20211;-72
2022/03/15 12:31:56;;;;;;;5.73;4.43;;;12.40;1.00;;;;;;5094014;28;20232;-73
2022/03/15 12:34:24;;;;;;;10.23;4.40;;;12.50;1.00;;;;;;5094915;28;20255;-73
2022/03/15 12:36:53;;;;;;;8.53;3.90;;;12.50;1.00;;;;;;5092918;28;20289;-72
2022/03/15 12:39:22;;;;;;;7.93;4.77;;;12.50;1.00;;;;;;5095012;28;20209;-72
2022/03/15 12:42:03;;;;;;;8.73;4.80;;;12.60;1.00;;;;;;5095061;28;20205;-73
2022/03/15 12:44:42;;;;;;;7.67;4.33;;;12.60;99.90;;;;;;5094019;28;20263;-72
2022/03/15 12:47:10;;;;;;;8.67;5.03;;;12.40;99.90;;;;;;5093346;28;20244;-72